Time;durP1;ratioP1;P1;durP2;ratioP2;P2;SDS_P1;SDS_P2;PMS_P1;PMS_P2;Temp;Humidity;BMP_temperature;BMP_pressure;BME280_temperature;BME280_humidity;BME280_pressure;Samples;Min_cycle;Max_cycle;Signal;HPM_P1;HPM_P2
2023/12/22 00:01:52;;;;;;;0.20;0.20;;;;;;;11.83;92.93;75064.41;6239835;22;20030;-88
2023/12/22 00:10:38;;;;;;;0.20;0.20;;;;;;;11.72;96.41;75057.34;6177585;23;20032;-87
2023/12/22 00:13:40;;;;;;;0.20;0.20;;;;;;;11.51;97.22;75025.13;6178157;23;20009;-87
2023/12/22 00:16:30;;;;;;;0.20;0.20;;;;;;;11.74;98.50;75054.19;6155013;23;20009;-88
2023/12/22 00:19:58;;;;;;;0.20;0.20;;;;;;;11.41;99.50;75015.94;6159000;23;20061;-88
2023/12/22 00:22:37;;;;;;;0.20;0.20;;;;;;;11.37;100.00;75008.38;6099447;23;20014;-88
2023/12/22 00:26:01;;;;;;;0.20;0.20;;;;;;;11.32;100.00;75007.34;6099836;23;20058;-88
2023/12/22 00:37:23;;;;;;;0.20;0.20;;;;;;;11.19;100.00;74992.41;6212893;22;20756;-87
2023/12/22 00:51:22;;;;;;;0.20;0.20;;;;;;;11.20;100.00;74993.63;6095200;23;20009;-88
2023/12/22 00:54:40;;;;;;;0.20;0.20;;;;;;;11.09;100.00;74983.25;6070964;23;20015;-88
2023/12/22 00:57:09;;;;;;;0.20;0.20;;;;;;;11.06;100.00;74982.41;6094460;23;20025;-88
2023/12/22 01:00:04;;;;;;;0.20;0.20;;;;;;;11.03;100.00;74973.91;6066703;23;19994;-87
2023/12/22 01:02:38;;;;;;;0.20;0.20;;;;;;;10.96;100.00;74966.13;6117677;23;20043;-88
2023/12/22 01:06:10;;;;;;;0.20;0.20;;;;;;;11.22;100.00;74996.00;6085948;23;20034;-88
2023/12/22 01:12:48;;;;;;;0.20;0.20;;;;;;;10.94;100.00;74963.13;6087595;23;20035;-87
2023/12/22 01:26:03;;;;;;;0.20;0.20;;;;;;;10.83;100.00;74956.13;6117357;23;20025;-88
2023/12/22 01:33:57;;;;;;;0.20;0.20;;;;;;;11.16;100.00;74994.38;6267830;22;20004;-87
2023/12/22 01:37:02;;;;;;;0.20;0.20;;;;;;;11.14;100.00;74989.81;6245171;23;20323;-88
2023/12/22 01:48:17;;;;;;;0.20;0.20;;;;;;;10.87;100.00;74952.59;6242029;22;20088;-87
2023/12/22 01:50:52;;;;;;;0.20;0.20;;;;;;;11.07;100.00;74983.59;6244160;23;20058;-88
2023/12/22 01:53:23;;;;;;;0.20;0.20;;;;;;;10.83;100.00;74950.59;6269666;22;20063;-88
2023/12/22 01:55:58;;;;;;;0.25;0.25;;;;;;;10.78;100.00;74944.59;6217335;23;20013;-88
2023/12/22 01:58:34;;;;;;;0.20;0.20;;;;;;;10.85;100.00;74949.59;6224600;22;20071;-87
2023/12/22 02:01:09;;;;;;;0.20;0.20;;;;;;;11.02;100.00;74972.69;6248363;22;19984;-88
2023/12/22 02:10:43;;;;;;;0.20;0.20;;;;;;;11.33;100.00;75009.13;6274428;22;20011;-89
2023/12/22 02:23:19;;;;;;;0.20;0.20;;;;;;;11.06;100.00;74976.88;6241781;22;20364;-88
2023/12/22 02:31:56;;;;;;;0.20;0.20;;;;;;;11.49;100.00;75028.25;6249690;22;20020;-88
2023/12/22 02:35:10;;;;;;;0.20;0.20;;;;;;;11.66;100.00;75047.41;6164733;23;20020;-88
2023/12/22 02:45:32;;;;;;;0.20;0.20;;;;;;;11.51;100.00;75030.06;6223762;22;20039;-88
2023/12/22 02:48:52;;;;;;;0.20;0.20;;;;;;;11.48;100.00;75027.06;6227767;22;19992;-89
2023/12/22 02:58:03;;;;;;;0.20;0.20;;;;;;;11.39;100.00;75016.31;6267778;22;20004;-89
2023/12/22 03:01:28;;;;;;;0.20;0.20;;;;;;;11.14;100.00;74989.22;6272396;22;20016;-89
2023/12/22 03:05:00;;;;;;;0.20;0.20;;;;;;;11.35;100.00;75005.41;6273822;22;20008;-88
2023/12/22 03:11:13;;;;;;;0.20;0.20;;;;;;;11.08;100.00;74979.25;6232346;22;20015;-88
2023/12/22 03:14:39;;;;;;;0.20;0.20;;;;;;;11.32;100.00;75013.50;6274767;22;20055;-89
2023/12/22 03:17:39;;;;;;;;;;;;;;;11.31;100.00;75003.41;6248882;22;19995;-89
2023/12/22 03:21:01;;;;;;;0.20;0.20;;;;;;;11.32;100.00;75007.34;6241397;22;19903;-88
2023/12/22 03:27:16;;;;;;;0.20;0.20;;;;;;;11.46;100.00;75024.69;6257828;22;20024;-88
2023/12/22 03:30:56;;;;;;;0.20;0.20;;;;;;;11.54;100.00;75037.00;6213633;23;20012;-88
2023/12/22 03:47:11;;;;;;;0.20;0.20;;;;;;;11.35;100.00;75011.53;6245382;22;19919;-88
2023/12/22 03:50:10;;;;;;;0.20;0.20;;;;;;;10.96;100.00;74963.34;6238086;23;20027;-88
2023/12/22 04:05:04;;;;;;;0.30;0.30;;;;;;;11.15;100.00;74993.75;6213869;23;20027;-89
2023/12/22 04:08:50;;;;;;;0.20;0.20;;;;;;;10.98;100.00;74971.28;6168703;23;20039;-89
2023/12/22 04:11:45;;;;;;;0.20;0.20;;;;;;;11.00;100.00;74968.13;6210965;23;19993;-89
2023/12/22 04:14:34;;;;;;;0.20;0.20;;;;;;;10.85;100.00;74952.97;6240754;23;20027;-87
2023/12/22 04:17:59;;;;;;;0.20;0.20;;;;;;;10.86;100.00;74954.16;6241441;23;20330;-89
2023/12/22 04:20:55;;;;;;;0.20;0.20;;;;;;;10.99;100.00;74969.72;6165725;23;20010;-88
2023/12/22 04:23:36;;;;;;;0.20;0.20;;;;;;;11.30;100.00;75008.34;6150861;23;20064;-88
2023/12/22 04:26:10;;;;;;;0.20;0.20;;;;;;;11.20;100.00;74996.38;6215267;23;20020;-88
2023/12/22 04:29:36;;;;;;;0.20;0.20;;;;;;;11.17;100.00;74993.38;6241311;23;20020;-88
2023/12/22 04:32:56;;;;;;;0.20;0.20;;;;;;;10.76;100.00;74945.00;6212258;23;19997;-88
2023/12/22 04:47:05;;;;;;;0.20;0.20;;;;;;;11.05;100.00;74975.69;6260719;22;20092;-89
2023/12/22 04:54:00;;;;;;;0.20;0.20;;;;;;;11.11;100.00;74982.84;6248499;22;20072;-88
2023/12/22 04:57:29;;;;;;;0.20;0.20;;;;;;;11.19;100.00;74998.56;6123071;23;20038;-86
2023/12/22 05:03:50;;;;;;;0.30;0.30;;;;;;;11.01;100.00;74974.84;6122034;23;20005;-89
2023/12/22 05:06:18;;;;;;;0.20;0.20;;;;;;;11.06;100.00;74974.09;6221388;22;19989;-89
2023/12/22 05:09:12;;;;;;;0.20;0.20;;;;;;;11.23;100.00;74997.19;6244175;22;20031;-88
2023/12/22 05:12:12;;;;;;;0.20;0.20;;;;;;;11.20;100.00;74996.38;6218167;22;20068;-88
2023/12/22 05:15:26;;;;;;;0.20;0.20;;;;;;;10.94;100.00;74958.19;6218670;22;20005;-89
2023/12/22 05:25:11;;;;;;;0.30;0.30;;;;;;;11.13;100.00;74979.69;6274387;22;20039;-88
2023/12/22 05:33:11;;;;;;;0.20;0.20;;;;;;;10.89;100.00;74957.75;6269264;22;20004;-88
2023/12/22 05:35:55;;;;;;;0.20;0.20;;;;;;;10.72;100.00;74937.44;6249551;22;20051;-88
2023/12/22 05:38:25;;;;;;;0.20;0.20;;;;;;;10.57;100.00;74920.13;6219615;23;20016;-88
2023/12/22 05:40:59;;;;;;;0.20;0.20;;;;;;;10.52;100.00;74916.31;6244899;22;20051;-88
2023/12/22 05:44:02;;;;;;;0.20;0.20;;;;;;;10.86;100.00;74956.94;6255611;22;20056;-88
2023/12/22 05:52:55;;;;;;;0.20;0.20;;;;;;;10.90;100.00;74958.94;6247792;22;20034;-88
2023/12/22 05:58:57;;;;;;;0.20;0.20;;;;;;;10.73;100.00;74938.63;6263804;22;20035;-89
2023/12/22 06:04:28;;;;;;;0.20;0.20;;;;;;;10.74;100.00;74943.19;6248753;22;20070;-87
2023/12/22 06:09:56;;;;;;;0.22;0.22;;;;;;;10.73;100.00;74938.63;6262870;22;20034;-88
2023/12/22 06:12:33;;;;;;;0.20;0.20;;;;;;;10.71;100.00;74941.78;6268311;23;20008;-87
2023/12/22 06:15:41;;;;;;;0.20;0.20;;;;;;;10.58;100.00;74921.31;6246991;22;20015;-89
2023/12/22 06:22:05;;;;;;;0.20;0.20;;;;;;;10.54;100.00;74915.94;6211939;23;20027;-88
2023/12/22 06:25:33;;;;;;;0.20;0.20;;;;;;;10.67;100.00;74932.06;6247038;22;20014;-89
2023/12/22 06:31:45;;;;;;;0.20;0.20;;;;;;;10.55;100.00;74917.72;6266211;22;20087;-89
2023/12/22 06:34:16;;;;;;;0.30;0.30;;;;;;;10.25;100.00;74887.41;6232207;22;20060;-88
2023/12/22 06:40:02;;;;;;;0.20;0.20;;;;;;;10.33;100.00;74894.78;6268353;22;20081;-88
2023/12/22 06:48:20;;;;;;;0.30;0.30;;;;;;;10.34;100.00;74892.66;6267365;22;20027;-88
2023/12/22 06:54:48;;;;;;;0.20;0.20;;;;;;;10.55;100.00;74917.13;6208911;22;21833;-88
2023/12/22 06:57:14;;;;;;;0.20;0.20;;;;;;;10.37;100.00;74891.28;6217596;23;19997;-87
2023/12/22 07:00:18;;;;;;;0.20;0.20;;;;;;;10.16;100.00;74877.22;6217813;22;19992;-89
2023/12/22 07:03:00;;;;;;;0.20;0.20;;;;;;;10.31;100.00;74883.53;6250790;23;20008;-88
2023/12/22 07:09:33;;;;;;;0.20;0.20;;;;;;;10.57;100.00;74919.53;6275757;22;20070;-88
2023/12/22 07:12:58;;;;;;;0.30;0.30;;;;;;;10.60;100.00;74923.09;6270743;23;19996;-87
2023/12/22 07:15:45;;;;;;;0.20;0.20;;;;;;;10.61;100.00;74921.53;6193744;23;20019;-87
2023/12/22 08:15:37;;;;;;;0.20;0.20;;;;;;;16.09;95.45;75562.81;6251978;22;20011;-90
2023/12/22 09:05:58;;;;;;;;;;;;;;;;;;;;;
2023/12/22 09:08:26;;;;;;;0.20;0.20;;;;;;;15.34;100.00;75476.84;6270680;22;20020;-90
2023/12/22 09:33:33;;;;;;;0.20;0.20;;;;;;;18.32;82.42;75828.44;6267161;22;20028;-86
2023/12/22 09:43:55;;;;;;;0.20;0.20;;;;;;;17.84;81.33;75768.59;6212451;22;20050;-91
2023/12/22 12:48:44;;;;;;;0.20;0.20;;;;;;;16.01;85.06;75556.00;5827471;22;25699383;-90
2023/12/22 12:51:17;;;;;;;0.20;0.20;;;;;;;16.00;84.77;75552.00;6186886;23;20226;-90
2023/12/22 12:54:11;;;;;;;0.20;0.20;;;;;;;15.99;84.19;75550.81;6210031;23;20012;-88
2023/12/22 12:57:05;;;;;;;0.20;0.20;;;;;;;16.36;83.98;75594.00;6212256;23;19997;-89
2023/12/22 12:59:47;;;;;;;0.20;0.20;;;;;;;16.49;84.65;75612.38;6152915;23;20009;-89
2023/12/22 13:02:45;;;;;;;0.20;0.20;;;;;;;16.41;83.38;75600.59;6183962;23;20005;-90
2023/12/22 13:09:13;;;;;;;0.20;0.20;;;;;;;16.42;83.04;75603.97;6211617;23;20024;-90
2023/12/22 13:12:28;;;;;;;0.20;0.20;;;;;;;16.55;83.30;75619.56;6209779;23;20017;-86
2023/12/22 13:15:17;;;;;;;0.20;0.20;;;;;;;16.71;82.76;75635.97;6186238;23;19989;-90
2023/12/22 13:25:13;;;;;;;0.20;0.20;;;;;;;16.09;90.11;75568.38;6213112;23;20016;-90
2023/12/22 13:28:49;;;;;;;0.20;0.20;;;;;;;15.80;88.87;75525.25;6196944;23;20004;-90
2023/12/22 15:07:31;;;;;;;0.20;0.20;;;;;;;14.21;100.00;75343.84;6290220;22;20455;-88
2023/12/22 15:10:05;;;;;;;0.30;0.30;;;;;;;13.92;100.00;75309.72;6298695;22;20019;-88
2023/12/22 15:12:37;;;;;;;0.20;0.20;;;;;;;13.96;100.00;75317.88;6272783;22;20015;-89
2023/12/22 15:15:04;;;;;;;0.20;0.20;;;;;;;14.00;100.00;75322.66;6277395;22;20002;-89
2023/12/22 15:17:32;;;;;;;0.20;0.20;;;;;;;13.80;100.00;75295.94;6277141;22;20010;-89
2023/12/22 15:20:05;;;;;;;0.20;0.20;;;;;;;13.65;100.00;75280.75;6304026;22;20181;-89
2023/12/22 15:22:46;;;;;;;0.20;0.20;;;;;;;13.50;100.00;75258.44;6273504;22;19999;-89
2023/12/22 15:25:13;;;;;;;0.20;0.20;;;;;;;13.59;100.00;75274.78;6267145;22;20064;-88
2023/12/22 15:27:53;;;;;;;0.20;0.20;;;;;;;13.47;100.00;75254.84;6247368;23;20047;-89
2023/12/22 15:30:57;;;;;;;0.20;0.20;;;;;;;13.69;100.00;75280.59;6248584;23;20043;-89
2023/12/22 15:34:22;;;;;;;0.20;0.20;;;;;;;13.59;100.00;75277.56;6270787;23;20038;-89
2023/12/22 15:37:35;;;;;;;0.20;0.20;;;;;;;13.55;100.00;75269.38;6221131;23;20000;-89
2023/12/22 15:40:11;;;;;;;0.20;0.20;;;;;;;13.43;100.00;75255.63;6271869;23;20004;-88
2023/12/22 15:43:21;;;;;;;0.20;0.20;;;;;;;13.30;100.00;75240.66;6254524;23;20015;-89
2023/12/22 15:46:13;;;;;;;0.20;0.20;;;;;;;12.95;100.00;75196.56;6271566;23;19992;-88
2023/12/22 15:49:30;;;;;;;0.20;0.20;;;;;;;13.02;100.00;75204.94;6271025;23;20062;-89
2023/12/22 15:51:59;;;;;;;0.20;0.20;;;;;;;12.91;100.00;75193.97;6270400;23;20004;-89
2023/12/22 15:54:51;;;;;;;0.20;0.20;;;;;;;12.90;100.00;75187.81;6260383;22;20020;-88
2023/12/22 15:58:12;;;;;;;0.20;0.20;;;;;;;12.53;100.00;75149.69;6235162;23;20024;-87
2023/12/22 16:11:14;;;;;;;0.20;0.20;;;;;;;12.16;100.00;75111.56;6274859;22;20011;-88
2023/12/22 16:25:10;;;;;;;0.20;0.20;;;;;;;11.96;100.00;75085.47;6263478;22;20008;-88
2023/12/22 16:28:07;;;;;;;0.20;0.20;;;;;;;12.14;100.00;75109.75;6273903;23;20042;-89
2023/12/22 16:30:34;;;;;;;0.20;0.20;;;;;;;12.04;100.00;75092.88;6223346;22;20012;-88
2023/12/22 16:36:36;;;;;;;0.30;0.30;;;;;;;12.04;100.00;75089.50;6274380;22;20002;-89
2023/12/22 16:39:05;;;;;;;0.20;0.20;;;;;;;11.89;100.00;75074.94;6243710;23;20012;-89
2023/12/22 16:45:25;;;;;;;0.20;0.20;;;;;;;11.64;100.00;75042.25;6272530;23;20003;-88
2023/12/22 16:48:18;;;;;;;0.20;0.20;;;;;;;11.84;100.00;75068.94;6226007;23;20039;-89
2023/12/22 17:10:39;;;;;;;0.30;0.30;;;;;;;11.71;100.00;75050.59;6211315;22;21157;31
2023/12/22 17:13:11;;;;;;;0.20;0.20;;;;;;;11.41;100.00;75018.72;6152463;23;19927;-87
2023/12/22 17:16:13;;;;;;;0.20;0.20;;;;;;;11.52;100.00;75031.88;6178125;23;20041;-88
2023/12/22 17:18:48;;;;;;;0.30;0.30;;;;;;;11.37;100.00;75011.16;6177698;23;20009;-89
2023/12/22 17:22:03;;;;;;;0.20;0.20;;;;;;;11.62;100.00;75039.84;6181654;23;20017;-89
2023/12/22 17:24:33;;;;;;;0.20;0.20;;;;;;;11.52;100.00;75034.63;6193375;23;20099;-88
2023/12/22 17:27:11;;;;;;;0.20;0.20;;;;;;;11.47;100.00;75025.28;6207994;23;20030;-88
2023/12/22 17:29:48;;;;;;;0.25;0.25;;;;;;;11.36;100.00;75007.19;6208538;23;20009;-89
2023/12/22 17:32:20;;;;;;;0.30;0.30;;;;;;;11.17;100.00;74990.63;6208147;23;20009;-87
2023/12/22 17:35:04;;;;;;;0.20;0.20;;;;;;;11.32;100.00;75007.34;6208081;23;20008;-89
2023/12/22 17:37:30;;;;;;;0.25;0.25;;;;;;;11.27;100.00;74996.44;6208277;23;20062;-88
2023/12/22 17:40:00;;;;;;;0.30;0.30;;;;;;;11.30;100.00;75004.97;6184605;23;20009;-89
2023/12/22 17:42:55;;;;;;;0.30;0.30;;;;;;;11.47;100.00;75025.88;6186813;23;20003;-89
2023/12/22 17:49:02;;;;;;;0.20;0.20;;;;;;;11.48;100.00;75027.06;6209960;23;20020;-87
2023/12/22 17:55:00;;;;;;;0.20;0.20;;;;;;;11.47;100.00;75025.88;6302244;22;20012;-90
2023/12/22 17:57:46;;;;;;;0.20;0.20;;;;;;;11.14;100.00;74989.22;6274099;22;20020;-88
2023/12/22 18:03:42;;;;;;;0.20;0.20;;;;;;;11.16;100.00;74988.81;6304359;22;20022;-89
2023/12/22 18:09:20;;;;;;;0.20;0.20;;;;;;;11.20;100.00;74994.22;6268022;22;20034;-87
2023/12/22 18:16:20;;;;;;;0.20;0.20;;;;;;;11.23;100.00;75003.31;6274950;22;20006;-88
2023/12/22 18:19:31;;;;;;;0.22;0.22;;;;;;;10.76;100.00;74942.22;6271088;22;20020;-89
2023/12/22 18:22:09;;;;;;;0.20;0.20;;;;;;;10.83;100.00;74953.34;6246010;23;19980;-89
2023/12/22 18:30:38;;;;;;;0.30;0.30;;;;;;;10.57;100.00;74919.53;6248303;22;20012;-88
2023/12/22 18:33:43;;;;;;;0.20;0.20;;;;;;;10.89;100.00;74954.41;6251072;23;20097;-87
2023/12/22 18:37:04;;;;;;;0.30;0.30;;;;;;;11.10;100.00;74981.66;6274031;22;20008;-89
2023/12/22 19:03:45;;;;;;;0.20;0.20;;;;;;;10.58;100.00;74920.72;6267931;22;20076;-88
2023/12/22 19:07:03;;;;;;;0.20;0.20;;;;;;;10.38;100.00;74897.41;6245084;23;20023;-88
2023/12/22 19:10:06;;;;;;;0.20;0.20;;;;;;;10.64;100.00;74927.88;6243742;23;20028;-88
2023/12/22 19:21:44;;;;;;;0.20;0.20;;;;;;;10.53;100.00;74917.50;6253765;22;20008;-88
2023/12/22 19:35:02;;;;;;;0.30;0.30;;;;;;;10.18;100.00;74874.72;6262479;22;20131;-88
2023/12/22 19:38:21;;;;;;;0.30;0.30;;;;;;;10.46;100.00;74907.56;6263956;22;20316;-87
2023/12/22 19:41:04;;;;;;;0.30;0.30;;;;;;;10.41;100.00;74901.00;6269579;22;20011;-88
2023/12/22 19:43:51;;;;;;;0.30;0.30;;;;;;;10.26;100.00;74883.69;6248032;22;20011;-87
2023/12/22 19:46:26;;;;;;;0.28;0.28;;;;;;;10.62;100.00;74925.50;6268706;23;19988;-89
2023/12/22 19:49:07;;;;;;;0.20;0.20;;;;;;;10.18;100.00;74876.88;6228611;23;20005;-89
2023/12/22 19:51:37;;;;;;;0.20;0.20;;;;;;;10.58;100.00;74920.72;6223116;23;20004;-88
2023/12/22 19:54:44;;;;;;;0.20;0.20;;;;;;;10.57;100.00;74922.28;6245884;22;19984;-90
2023/12/22 19:57:15;;;;;;;0.20;0.20;;;;;;;10.35;100.00;74899.97;6272513;23;20046;-87
2023/12/22 19:59:48;;;;;;;0.20;0.20;;;;;;;10.33;100.00;74888.69;6245811;23;19999;-90
2023/12/22 20:02:52;;;;;;;0.30;0.30;;;;;;;10.16;100.00;74868.94;6246303;23;20016;-89
2023/12/22 20:08:21;;;;;;;0.20;0.20;;;;;;;10.36;100.00;74892.84;6265712;22;20028;-89
2023/12/22 20:10:51;;;;;;;0.20;0.20;;;;;;;10.28;100.00;74886.09;6245421;23;20037;-88
2023/12/22 20:13:48;;;;;;;0.30;0.30;;;;;;;10.09;100.00;74863.34;6245939;22;20062;-88
2023/12/22 20:16:29;;;;;;;0.30;0.30;;;;;;;10.16;100.00;74871.72;6244099;23;20011;-89
2023/12/22 20:19:42;;;;;;;0.20;0.20;;;;;;;10.36;100.00;74898.38;6262876;23;20012;-88
2023/12/22 20:22:08;;;;;;;0.20;0.20;;;;;;;10.45;100.00;74908.56;6245917;23;20008;-89
2023/12/22 20:24:45;;;;;;;0.30;0.30;;;;;;;10.21;100.00;74877.69;6210382;23;20046;-88
2023/12/22 20:27:57;;;;;;;0.20;0.20;;;;;;;10.51;100.00;74915.72;6245367;23;20000;-88
2023/12/22 20:45:30;;;;;;;0.20;0.20;;;;;;;9.94;100.00;74849.38;6240251;22;20012;-87
2023/12/22 20:47:59;;;;;;;0.20;0.20;;;;;;;9.92;100.00;74844.25;6194761;23;20192;-89
2023/12/22 20:53:09;;;;;;;0.20;0.20;;;;;;;10.34;100.00;74893.25;6194676;22;20024;-89
2023/12/22 20:56:00;;;;;;;0.20;0.20;;;;;;;10.39;100.00;74896.44;6186553;23;20024;-89
2023/12/22 20:58:29;;;;;;;0.20;0.20;;;;;;;10.48;100.00;74915.47;6212870;23;20019;-87
2023/12/22 21:01:40;;;;;;;0.28;0.28;;;;;;;10.52;100.00;74916.31;6203946;23;20036;-89
2023/12/22 21:04:21;;;;;;;0.20;0.20;;;;;;;10.44;100.00;74904.59;6213119;23;20008;-89
2023/12/22 21:06:50;;;;;;;0.22;0.22;;;;;;;10.15;100.00;74876.03;6186824;23;20000;-90
2023/12/22 21:09:35;;;;;;;0.30;0.30;;;;;;;10.31;100.00;74892.41;6187848;23;20012;-89
2023/12/22 21:12:58;;;;;;;0.30;0.30;;;;;;;10.47;100.00;74908.16;6193550;23;20005;-88
2023/12/22 21:15:45;;;;;;;0.20;0.20;;;;;;;10.39;100.00;74899.22;6209108;23;20016;-88
2023/12/22 21:19:07;;;;;;;0.20;0.20;;;;;;;10.54;100.00;74916.53;6186534;23;20001;-89
2023/12/22 21:24:36;;;;;;;0.30;0.30;;;;;;;10.39;100.00;74899.22;6195218;22;20012;-89
2023/12/22 21:27:24;;;;;;;0.20;0.20;;;;;;;10.39;100.00;74899.22;6236863;23;20004;-88
2023/12/22 21:48:53;;;;;;;0.20;0.20;;;;;;;10.48;100.00;74912.13;6225062;22;20051;-88
2023/12/22 21:52:01;;;;;;;0.20;0.20;;;;;;;10.54;100.00;74915.94;6255674;22;20000;-89
2023/12/22 21:54:28;;;;;;;0.20;0.20;;;;;;;10.23;100.00;74877.31;6241485;23;19996;-86
2023/12/22 21:56:56;;;;;;;0.20;0.20;;;;;;;10.46;100.00;74906.97;6215004;23;20011;-86
2023/12/22 21:59:23;;;;;;;0.20;0.20;;;;;;;10.51;100.00;74915.72;6238779;23;20020;-86
2023/12/22 22:01:49;;;;;;;0.20;0.20;;;;;;;10.26;100.00;74885.84;6237939;23;20015;-87
2023/12/22 22:04:16;;;;;;;0.20;0.20;;;;;;;10.25;100.00;74885.25;6238721;23;20031;-88
2023/12/22 22:06:44;;;;;;;0.30;0.30;;;;;;;10.31;100.00;74895.19;6241960;23;20041;-88
2023/12/22 22:09:15;;;;;;;0.20;0.20;;;;;;;10.39;100.00;74898.63;6239874;23;20008;-87
2023/12/22 22:11:45;;;;;;;0.20;0.20;;;;;;;10.61;100.00;74921.53;6264109;23;20004;-88
2023/12/22 22:14:12;;;;;;;0.20;0.20;;;;;;;10.57;100.00;74920.13;6241628;22;20015;-87
2023/12/22 22:16:38;;;;;;;0.30;0.30;;;;;;;10.50;100.00;74906.22;6233960;22;20008;-89
2023/12/22 22:19:34;;;;;;;0.30;0.30;;;;;;;10.41;100.00;74901.59;6243277;23;20044;-88
2023/12/22 22:22:48;;;;;;;0.25;0.25;;;;;;;10.67;100.00;74937.00;6272552;22;20005;-88
2023/12/22 22:28:07;;;;;;;0.30;0.30;;;;;;;10.44;100.00;74904.59;6245513;22;20072;-88
2023/12/22 22:31:06;;;;;;;0.20;0.20;;;;;;;10.40;100.00;74900.41;6211394;23;20007;-88
2023/12/22 22:33:34;;;;;;;0.30;0.30;;;;;;;10.78;100.00;74941.25;6209747;23;20094;-87
2023/12/22 22:36:07;;;;;;;0.20;0.20;;;;;;;10.71;100.00;74939.63;6233638;23;20001;-87
2023/12/22 22:41:40;;;;;;;0.20;0.20;;;;;;;10.60;100.00;74925.84;6240900;22;19903;-86
2023/12/22 22:44:07;;;;;;;0.20;0.20;;;;;;;10.44;100.00;74905.19;6237697;23;19985;-87
2023/12/22 22:46:38;;;;;;;0.30;0.30;;;;;;;10.38;100.00;74900.78;6236252;22;20000;-89
2023/12/22 22:49:14;;;;;;;0.20;0.20;;;;;;;10.33;100.00;74892.03;6232314;23;20019;-87
2023/12/22 22:52:04;;;;;;;0.20;0.20;;;;;;;10.36;100.00;74901.16;6234598;23;20056;-87
2023/12/22 22:55:13;;;;;;;0.30;0.30;;;;;;;10.61;100.00;74924.31;6231568;22;20008;-87
2023/12/22 22:57:39;;;;;;;0.20;0.20;;;;;;;10.62;100.00;74928.25;6234045;23;20009;-87
2023/12/22 23:00:41;;;;;;;0.30;0.30;;;;;;;10.67;100.00;74928.72;6234153;23;20121;-87
2023/12/22 23:03:07;;;;;;;0.20;0.20;;;;;;;10.41;100.00;74898.84;6205872;22;20036;-87
2023/12/22 23:05:42;;;;;;;0.20;0.20;;;;;;;10.59;100.00;74919.13;6232527;23;20044;-85
2023/12/22 23:08:15;;;;;;;0.20;0.20;;;;;;;10.34;100.00;74896.00;6236193;23;20004;-87
2023/12/22 23:10:45;;;;;;;0.30;0.30;;;;;;;10.35;100.00;74894.44;6233547;22;20024;-86
2023/12/22 23:13:12;;;;;;;0.30;0.30;;;;;;;10.46;100.00;74909.75;6233537;23;20007;-86
2023/12/22 23:15:38;;;;;;;0.20;0.20;;;;;;;10.37;100.00;74896.81;6233750;23;20005;-87
2023/12/22 23:18:08;;;;;;;0.20;0.20;;;;;;;10.60;100.00;74923.72;6234577;23;20016;-86
2023/12/22 23:20:52;;;;;;;0.22;0.22;;;;;;;10.44;100.00;74904.59;6234696;23;20072;-85
2023/12/22 23:23:21;;;;;;;0.28;0.28;;;;;;;10.30;100.00;74887.88;6234209;23;20016;-87
2023/12/22 23:25:56;;;;;;;0.20;0.20;;;;;;;10.35;100.00;74891.66;6240833;23;20060;-87
2023/12/22 23:28:47;;;;;;;0.20;0.20;;;;;;;10.19;100.00;74881.44;6234355;23;20004;-87
2023/12/22 23:31:19;;;;;;;0.20;0.20;;;;;;;10.22;100.00;74878.88;6237385;22;20052;-85
2023/12/22 23:33:50;;;;;;;0.20;0.20;;;;;;;10.04;100.00;74851.84;6236907;23;20012;-86
2023/12/22 23:36:16;;;;;;;0.20;0.20;;;;;;;9.99;100.00;74854.78;6237430;23;20009;-87
2023/12/22 23:39:27;;;;;;;0.20;0.20;;;;;;;10.33;100.00;74892.03;6238224;23;20032;-87
2023/12/22 23:41:57;;;;;;;0.20;0.20;;;;;;;10.05;100.00;74859.16;6236461;23;20011;-86
2023/12/22 23:44:23;;;;;;;0.20;0.20;;;;;;;10.24;100.00;74881.31;6186418;23;20004;-86
2023/12/22 23:46:55;;;;;;;0.30;0.30;;;;;;;10.13;100.00;74873.66;6239755;23;20015;-86
2023/12/22 23:49:47;;;;;;;0.20;0.20;;;;;;;10.05;100.00;74853.03;6236037;23;20039;-88
2023/12/22 23:55:22;;;;;;;0.20;0.20;;;;;;;10.18;100.00;74877.47;6266325;22;20332;-87
2023/12/22 23:58:10;;;;;;;0.30;0.30;;;;;;;9.85;100.00;74835.88;6268670;23;20015;-87
